Time;durP1;ratioP1;P1;durP2;ratioP2;P2;SDS_P1;SDS_P2;PMS_P1;PMS_P2;Temp;Humidity;BMP_temperature;BMP_pressure;BME280_temperature;BME280_humidity;BME280_pressure;Samples;Min_cycle;Max_cycle;Signal;HPM_P1;HPM_P2
2021/03/01 00:01:06;;;;;;;8.43;6.83;;;;;;;6.55;55.13;96921.25;5031873;28;20260;-86
2021/03/01 00:03:33;;;;;;;7.20;6.50;;;;;;;6.57;55.16;96916.84;5031193;28;20649;-85
2021/03/01 00:05:59;;;;;;;8.70;6.57;;;;;;;6.60;54.97;96923.47;5031708;28;20313;-83
2021/03/01 00:08:25;;;;;;;7.73;6.63;;;;;;;6.63;54.44;96920.69;5031504;28;20217;-84
2021/03/01 00:10:51;;;;;;;7.83;6.43;;;;;;;6.65;54.16;96918.81;5030949;28;20242;-84
2021/03/01 00:13:19;;;;;;;8.30;6.60;;;;;;;6.58;54.52;96928.72;5031876;28;20190;-86
2021/03/01 00:15:45;;;;;;;7.87;6.70;;;;;;;6.56;54.42;96917.78;5030814;28;20824;-85
2021/03/01 00:18:11;;;;;;;8.93;7.23;;;;;;;6.56;54.74;96915.22;5030752;28;20260;-85
2021/03/01 00:20:38;;;;;;;7.33;6.63;;;;;;;6.52;54.75;96906.16;5031388;28;20257;-86
2021/03/01 00:23:04;;;;;;;8.83;7.13;;;;;;;6.44;54.50;96916.16;5031768;28;20249;-84
2021/03/01 00:25:30;;;;;;;7.83;6.77;;;;;;;6.41;54.91;96910.47;5031164;28;20633;-82
2021/03/01 00:27:56;;;;;;;7.37;6.40;;;;;;;6.38;54.57;96910.69;5031559;28;20214;-83
2021/03/01 00:30:23;;;;;;;9.27;7.27;;;;;;;6.30;54.88;96913.88;5031482;28;20222;-83
2021/03/01 00:32:49;;;;;;;8.47;7.03;;;;;;;6.29;55.22;96913.97;5031512;28;20229;-86
2021/03/01 00:35:15;;;;;;;8.67;7.77;;;;;;;6.18;55.07;96913.03;5031618;28;20280;-86
2021/03/01 00:37:42;;;;;;;8.90;7.57;;;;;;;6.13;55.43;96910.03;5032341;28;20205;-86
2021/03/01 00:40:09;;;;;;;8.50;7.63;;;;;;;6.08;55.58;96911.31;5031840;28;20502;-85
2021/03/01 00:42:35;;;;;;;7.90;7.10;;;;;;;6.07;55.18;96896.91;5032119;28;20226;-83
2021/03/01 00:45:01;;;;;;;10.77;7.57;;;;;;;6.05;55.72;96901.31;5030946;28;20225;-84
2021/03/01 00:47:27;;;;;;;7.57;6.80;;;;;;;5.99;55.40;96912.81;5031851;28;20234;-85
2021/03/01 00:49:53;;;;;;;8.83;7.10;;;;;;;5.98;55.52;96903.50;5031141;28;20229;-84
2021/03/01 00:52:19;;;;;;;8.07;7.27;;;;;;;5.92;55.42;96910.84;5032328;28;20198;-86
2021/03/01 00:54:46;;;;;;;7.93;6.93;;;;;;;5.94;55.78;96914.09;5031456;28;20230;-85
2021/03/01 00:57:12;;;;;;;9.30;6.87;;;;;;;5.92;55.71;96898.88;5031248;28;20237;-85
2021/03/01 00:59:38;;;;;;;7.63;6.90;;;;;;;5.85;55.71;96911.25;5031033;28;20234;-84
2021/03/01 01:02:03;;;;;;;8.03;7.23;;;;;;;5.57;56.40;96916.81;5031153;28;20629;-84
2021/03/01 01:04:29;;;;;;;8.37;7.20;;;;;;;5.47;56.38;96913.28;5034623;28;20634;-86
2021/03/01 01:06:55;;;;;;;7.63;6.90;;;;;;;5.48;56.51;96918.28;5036179;28;20213;-85
2021/03/01 01:09:21;;;;;;;7.57;6.60;;;;;;;5.43;56.75;96915.22;5035064;28;20246;-85
2021/03/01 01:11:48;;;;;;;9.67;6.70;;;;;;;5.44;57.03;96910.94;5036222;28;20299;-85
2021/03/01 01:14:14;;;;;;;10.17;7.40;;;;;;;5.38;57.02;96914.78;5035020;28;20284;-84
2021/03/01 01:16:42;;;;;;;8.67;7.07;;;;;;;5.40;56.69;96922.31;5035885;28;20439;-86
2021/03/01 01:19:09;;;;;;;8.60;7.13;;;;;;;5.42;57.06;96916.16;5035456;28;20586;-85
2021/03/01 01:21:35;;;;;;;8.97;7.07;;;;;;;5.44;56.81;96913.50;5035226;28;20310;-83
2021/03/01 01:24:04;;;;;;;7.93;6.93;;;;;;;5.38;57.02;96919.06;5035862;28;20230;-84
2021/03/01 01:26:33;;;;;;;9.23;7.30;;;;;;;5.38;56.88;96919.06;5035150;28;20228;-85
2021/03/01 01:29:00;;;;;;;8.57;6.73;;;;;;;5.31;57.50;96920.44;5035677;28;20256;-83
2021/03/01 01:31:26;;;;;;;7.93;7.10;;;;;;;5.30;57.87;96917.06;5034971;28;20201;-84
2021/03/01 01:33:52;;;;;;;8.17;7.13;;;;;;;5.33;57.88;96913.47;5035505;28;20198;-84
2021/03/01 01:36:18;;;;;;;8.37;7.30;;;;;;;5.35;57.55;96911.63;5035673;28;20229;-86
2021/03/01 01:38:44;;;;;;;7.87;6.70;;;;;;;5.33;57.78;96916.84;5035053;28;20230;-85
2021/03/01 01:41:10;;;;;;;7.93;7.10;;;;;;;5.34;57.36;96915.91;5035315;28;20324;-84
2021/03/01 01:43:37;;;;;;;9.13;7.40;;;;;;;5.37;57.46;96913.16;5034685;28;20204;-83
2021/03/01 01:46:04;;;;;;;8.83;7.00;;;;;;;5.44;57.24;96908.38;5035233;28;20222;-84
2021/03/01 01:48:29;;;;;;;9.23;8.03;;;;;;;5.42;57.53;96916.16;5035348;28;20209;-84
2021/03/01 01:50:55;;;;;;;8.27;7.20;;;;;;;5.42;57.04;96920.44;5035094;28;20249;-84
2021/03/01 01:53:21;;;;;;;10.60;7.37;;;;;;;5.35;57.77;96917.56;5034731;28;20225;-84
2021/03/01 01:55:48;;;;;;;9.90;7.87;;;;;;;5.26;57.92;96914.84;5034361;28;20837;-84
2021/03/01 01:58:14;;;;;;;9.93;7.33;;;;;;;5.29;57.92;96906.94;5035203;28;20614;-84
2021/03/01 02:00:45;;;;;;;9.10;7.20;;;;;;;5.21;58.67;96904.94;5034312;28;20311;-84
2021/03/01 02:03:47;;;;;;;9.27;7.33;;;;;;;5.21;58.44;96905.75;5034499;28;20234;-84
2021/03/01 02:06:37;;;;;;;8.70;7.63;;;;;;;5.21;59.39;96897.28;5034137;28;20261;-84
2021/03/01 02:09:13;;;;;;;8.93;7.57;;;;;;;5.14;58.96;96891.00;5033640;28;20242;-82
2021/03/01 02:11:51;;;;;;;8.73;7.33;;;;;;;5.02;60.11;96881.66;5034705;28;20228;-83
2021/03/01 02:14:25;;;;;;;10.03;7.80;;;;;;;5.04;60.13;96883.19;5033743;28;20233;-86
2021/03/01 02:16:51;;;;;;;9.67;7.30;;;;;;;5.09;59.93;96886.22;5035271;28;20234;-86
2021/03/01 02:19:20;;;;;;;9.00;7.67;;;;;;;5.11;59.57;96886.94;5034369;28;20697;-85
2021/03/01 02:21:47;;;;;;;8.07;7.27;;;;;;;5.14;59.53;96875.69;5033994;28;20237;-85
2021/03/01 02:24:17;;;;;;;8.20;7.30;;;;;;;5.04;60.09;96870.44;5033790;28;20226;-83
2021/03/01 02:26:46;;;;;;;9.03;7.73;;;;;;;5.05;59.95;96877.16;5034138;28;20236;-85
2021/03/01 02:29:15;;;;;;;8.37;7.47;;;;;;;5.06;59.95;96875.41;5033469;28;20744;-85
2021/03/01 02:31:44;;;;;;;8.30;7.40;;;;;;;5.12;59.55;96875.81;5033618;28;20202;-83
2021/03/01 02:34:14;;;;;;;9.13;7.10;;;;;;;5.11;59.46;96886.13;5034201;28;20620;-83
2021/03/01 02:36:44;;;;;;;7.77;6.97;;;;;;;5.20;59.18;96888.81;5033819;28;20237;-81
2021/03/01 02:39:15;;;;;;;7.90;7.10;;;;;;;5.20;58.67;96885.44;5033775;28;20230;-82
2021/03/01 02:41:42;;;;;;;7.53;6.73;;;;;;;5.16;59.11;96884.88;5034185;28;20230;-83
2021/03/01 02:44:08;;;;;;;9.40;7.33;;;;;;;5.06;58.78;96885.63;5032594;28;20221;-83
2021/03/01 02:46:36;;;;;;;7.77;6.97;;;;;;;5.02;59.12;96885.03;5033274;28;20230;-84
2021/03/01 02:49:04;;;;;;;7.90;7.10;;;;;;;4.93;59.13;96885.72;5033708;28;20194;-86
2021/03/01 02:51:31;;;;;;;10.60;7.80;;;;;;;4.94;59.25;96882.22;5033469;28;20226;-85
2021/03/01 02:53:58;;;;;;;8.20;7.00;;;;;;;4.97;59.17;96886.31;5034198;28;20325;-84
2021/03/01 02:56:26;;;;;;;8.37;7.27;;;;;;;4.96;59.08;96892.34;5033765;28;20612;-85
2021/03/01 02:58:55;;;;;;;7.83;7.03;;;;;;;4.83;59.17;96887.28;5033358;28;20234;-84
2021/03/01 03:01:23;;;;;;;7.87;7.07;;;;;;;4.84;59.68;96886.34;5032995;28;20217;-84
2021/03/01 03:03:52;;;;;;;7.90;7.10;;;;;;;4.88;59.40;96885.22;5031493;28;20222;-84
2021/03/01 03:06:27;;;;;;;11.17;6.80;;;;;;;4.94;59.71;96889.88;5031815;28;20230;-84
2021/03/01 03:08:56;;;;;;;8.10;6.60;;;;;;;4.96;59.07;96882.94;5031586;28;20221;-85
2021/03/01 03:11:27;;;;;;;8.67;7.60;;;;;;;4.97;59.86;96876.91;5030977;28;20218;-83
2021/03/01 03:13:54;;;;;;;10.07;7.50;;;;;;;5.01;59.87;96869.81;5031236;28;20229;-84
2021/03/01 03:16:24;;;;;;;7.43;6.67;;;;;;;5.05;59.38;96884.81;5032179;28;20592;-83
2021/03/01 03:18:52;;;;;;;8.20;7.17;;;;;;;5.13;59.48;96885.09;5031978;28;20277;-85
2021/03/01 03:21:18;;;;;;;8.70;7.23;;;;;;;5.19;58.71;96882.09;5031302;28;20221;-84
2021/03/01 03:23:44;;;;;;;8.93;6.77;;;;;;;5.26;58.60;96871.44;5032814;28;20226;-84
2021/03/01 03:26:13;;;;;;;8.17;7.13;;;;;;;5.28;58.79;96874.69;5031108;28;20291;-83
2021/03/01 03:28:40;;;;;;;10.47;7.37;;;;;;;5.30;58.41;96878.75;5031089;28;20718;-85
2021/03/01 03:31:07;;;;;;;8.20;6.60;;;;;;;5.28;58.48;96882.34;5031629;28;20681;-84
2021/03/01 03:33:33;;;;;;;9.63;7.37;;;;;;;5.29;58.55;96886.53;5031371;28;20222;-84
2021/03/01 03:35:59;;;;;;;8.10;7.30;;;;;;;5.28;58.60;96880.59;5030800;28;20726;-83
2021/03/01 03:38:29;;;;;;;9.43;6.80;;;;;;;5.18;58.58;96882.22;5031202;28;20232;-84
2021/03/01 03:41:00;;;;;;;7.93;7.13;;;;;;;5.18;59.00;96887.31;5030567;28;20232;-85
2021/03/01 03:43:27;;;;;;;8.73;7.10;;;;;;;5.14;58.95;96891.00;5031614;28;20208;-84
2021/03/01 03:45:57;;;;;;;10.07;7.53;;;;;;;5.00;59.74;96888.66;5033463;28;20230;-86
2021/03/01 03:48:26;;;;;;;9.33;7.37;;;;;;;4.99;59.49;96898.03;5033034;28;20272;-85
2021/03/01 03:50:53;;;;;;;8.37;7.10;;;;;;;5.02;58.87;96895.25;5033192;28;20234;-85
2021/03/01 03:53:23;;;;;;;9.13;7.03;;;;;;;5.00;59.03;96889.47;5032560;28;20226;-85
2021/03/01 03:55:50;;;;;;;8.07;6.97;;;;;;;5.02;58.99;96886.78;5033600;28;20233;-86
2021/03/01 03:58:25;;;;;;;8.33;7.23;;;;;;;5.00;58.76;96889.47;5033574;28;20728;-85
2021/03/01 04:00:54;;;;;;;7.97;7.17;;;;;;;4.96;59.07;96897.44;5032454;28;20229;-85
2021/03/01 04:03:22;;;;;;;9.17;7.53;;;;;;;4.90;59.33;96890.22;5033243;28;20252;-85
2021/03/01 04:05:50;;;;;;;8.03;7.00;;;;;;;4.90;59.16;96893.56;5033042;28;20261;-85
2021/03/01 04:08:17;;;;;;;11.67;7.47;;;;;;;4.83;59.59;96898.28;5032962;28;20230;-86
2021/03/01 04:10:44;;;;;;;7.80;7.00;;;;;;;4.86;59.61;96897.25;5032949;28;20229;-86
2021/03/01 04:13:13;;;;;;;7.87;6.97;;;;;;;4.87;59.61;96898.88;5032814;28;20205;-83
2021/03/01 04:15:43;;;;;;;8.97;6.90;;;;;;;4.79;59.54;96903.75;5032204;28;20713;-85
2021/03/01 04:18:12;;;;;;;9.10;7.93;;;;;;;4.73;59.97;96897.31;5032924;28;20252;-86
2021/03/01 04:20:40;;;;;;;8.20;7.03;;;;;;;4.74;59.94;96906.63;5032304;28;20311;-85
2021/03/01 04:23:07;;;;;;;9.03;7.30;;;;;;;4.77;59.69;96908.13;5032496;28;20264;-84
2021/03/01 04:25:34;;;;;;;8.77;7.20;;;;;;;4.70;59.49;96900.09;5033172;28;20217;-85
2021/03/01 04:28:02;;;;;;;10.13;7.43;;;;;;;4.59;60.53;96904.31;5033302;28;20256;-86
2021/03/01 04:30:28;;;;;;;7.80;6.97;;;;;;;4.65;59.98;96904.69;5032310;28;20238;-86
2021/03/01 04:32:55;;;;;;;10.47;7.27;;;;;;;4.44;60.54;96907.00;5032432;28;20226;-84
2021/03/01 04:35:22;;;;;;;6.80;6.20;;;;;;;4.49;59.92;96906.69;5031534;28;20257;-85
2021/03/01 04:37:49;;;;;;;9.17;7.30;;;;;;;4.47;60.28;96903.41;5031622;28;20225;-85
2021/03/01 04:40:16;;;;;;;9.30;7.20;;;;;;;4.42;60.38;96902.94;5033006;28;20675;-84
2021/03/01 04:42:45;;;;;;;8.57;7.67;;;;;;;4.41;60.43;96908.97;5032506;28;20230;-84
2021/03/01 04:45:14;;;;;;;9.47;7.80;;;;;;;4.33;60.87;96908.66;5031850;28;20226;-82
2021/03/01 04:47:44;;;;;;;9.27;7.40;;;;;;;4.36;60.06;96901.63;5032262;28;20218;-85
2021/03/01 04:50:12;;;;;;;8.47;7.13;;;;;;;4.33;60.56;96899.28;5029965;28;20225;-84
2021/03/01 04:52:41;;;;;;;8.03;6.90;;;;;;;4.26;60.59;96898.06;5026194;28;20190;-84
2021/03/01 04:55:08;;;;;;;10.63;7.47;;;;;;;4.24;60.95;96892.25;5032299;28;20218;-85
2021/03/01 04:57:34;;;;;;;10.27;7.77;;;;;;;4.33;60.36;96896.72;5032107;28;20234;-81
2021/03/01 05:00:03;;;;;;;9.50;7.90;;;;;;;4.37;60.40;96903.25;5029994;28;21066;-82
2021/03/01 05:02:31;;;;;;;8.70;7.03;;;;;;;4.43;60.32;96899.44;5030625;28;20354;-83
2021/03/01 05:04:57;;;;;;;10.50;7.90;;;;;;;4.40;60.22;96899.69;5030629;28;20284;-83
2021/03/01 05:07:24;;;;;;;9.10;7.57;;;;;;;4.41;60.17;96896.22;5032288;28;20202;-84
2021/03/01 05:09:51;;;;;;;9.13;7.57;;;;;;;4.48;60.11;96895.66;5030062;28;20229;-82
2021/03/01 05:12:18;;;;;;;10.67;7.93;;;;;;;4.46;60.10;96889.03;5031229;28;20217;-83
2021/03/01 05:14:43;;;;;;;9.43;7.33;;;;;;;4.31;60.66;96885.81;5029954;28;20225;-84
2021/03/01 05:17:09;;;;;;;11.90;7.80;;;;;;;4.28;60.19;96891.13;5030074;28;20690;-82
2021/03/01 05:19:35;;;;;;;12.10;7.73;;;;;;;4.14;61.05;96891.28;5030233;28;20280;-83
2021/03/01 05:22:01;;;;;;;10.03;7.77;;;;;;;4.19;60.66;96888.41;5030520;28;20256;-83
2021/03/01 05:24:30;;;;;;;11.47;7.53;;;;;;;4.19;60.97;96890.97;5030013;28;20257;-86
2021/03/01 05:26:58;;;;;;;11.60;7.87;;;;;;;4.15;60.61;96883.53;5030459;28;20226;-82
2021/03/01 05:29:24;;;;;;;10.97;7.50;;;;;;;4.17;60.82;96888.50;5030533;28;20602;-83
2021/03/01 05:31:50;;;;;;;9.83;7.17;;;;;;;4.15;60.39;96885.25;5031360;28;20237;-84
2021/03/01 05:34:16;;;;;;;9.93;7.67;;;;;;;4.18;60.50;96889.34;5031184;28;20728;-84
2021/03/01 05:36:42;;;;;;;9.90;7.63;;;;;;;4.16;60.42;96881.78;5030810;28;20260;-84
2021/03/01 05:39:08;;;;;;;9.50;7.60;;;;;;;4.14;60.83;96889.53;5029808;28;20226;-82
2021/03/01 05:41:34;;;;;;;9.50;7.60;;;;;;;4.12;60.82;96888.00;5029891;28;20283;-82
2021/03/01 05:44:01;;;;;;;13.53;7.67;;;;;;;4.08;60.64;96894.22;5027527;28;20911;-81
2021/03/01 05:46:28;;;;;;;11.43;7.90;;;;;;;4.00;60.57;96888.84;5025162;28;20218;-82
2021/03/01 05:48:54;;;;;;;8.87;7.77;;;;;;;3.92;61.28;96886.00;5026697;28;20218;-84
2021/03/01 05:51:24;;;;;;;9.80;7.43;;;;;;;4.00;60.88;96892.22;5031362;28;20244;-82
2021/03/01 05:53:51;;;;;;;12.77;7.10;;;;;;;3.91;61.20;96899.66;5032677;28;20233;-84
2021/03/01 05:56:18;;;;;;;8.93;7.47;;;;;;;3.98;61.40;96896.59;5032818;28;20654;-81
2021/03/01 05:58:44;;;;;;;7.90;7.03;;;;;;;4.03;60.99;96904.75;5032517;28;20198;-85
2021/03/01 06:01:11;;;;;;;8.97;7.60;;;;;;;4.08;60.78;96899.31;5032407;28;20225;-83
2021/03/01 06:03:38;;;;;;;9.87;7.80;;;;;;;4.14;60.57;96909.94;5032522;28;20222;-82
2021/03/01 06:06:05;;;;;;;9.10;8.00;;;;;;;4.19;60.62;96907.06;5031518;28;20241;-82
2021/03/01 06:08:32;;;;;;;10.33;7.00;;;;;;;4.18;60.39;96905.44;5033260;28;20283;-82
2021/03/01 06:10:58;;;;;;;9.20;7.57;;;;;;;4.11;60.20;96906.75;5030974;28;20221;-83
2021/03/01 06:13:25;;;;;;;10.27;7.23;;;;;;;4.18;60.04;96910.53;5032790;28;20206;-85
2021/03/01 06:15:52;;;;;;;13.00;7.73;;;;;;;4.13;60.48;96910.84;5030148;28;20311;-84
2021/03/01 06:18:19;;;;;;;14.13;8.33;;;;;;;4.14;60.80;96904.84;5031995;28;20226;-83
2021/03/01 06:20:45;;;;;;;21.80;12.80;;;;;;;4.10;60.38;96915.31;5031299;28;20230;-83
2021/03/01 06:23:11;;;;;;;13.70;8.63;;;;;;;4.11;60.76;96924.59;5032294;28;20230;-83
2021/03/01 06:25:37;;;;;;;14.40;8.20;;;;;;;4.19;60.96;96921.56;5031662;28;20218;-83
2021/03/01 06:28:05;;;;;;;9.97;7.47;;;;;;;4.26;60.63;96915.09;5027099;28;20202;-82
2021/03/01 06:30:32;;;;;;;11.87;8.17;;;;;;;4.40;60.15;96914.97;5031764;28;20233;-83
2021/03/01 06:33:09;;;;;;;16.60;7.13;;;;;;;4.68;59.52;96912.13;5032109;28;20623;-83
2021/03/01 06:35:39;;;;;;;10.10;7.00;;;;;;;4.92;59.11;96919.00;5032981;28;20283;-83
2021/03/01 06:38:20;;;;;;;9.97;6.80;;;;;;;5.27;57.87;96922.38;5033049;28;20241;-84
2021/03/01 06:41:06;;;;;;;9.00;6.83;;;;;;;5.51;57.35;96923.16;5032143;28;20226;-83
2021/03/01 06:43:32;;;;;;;9.47;7.33;;;;;;;5.67;56.61;96924.59;5031820;28;20730;-83
2021/03/01 06:46:09;;;;;;;12.07;7.73;;;;;;;5.81;55.84;96935.41;5033326;28;20218;-84
2021/03/01 06:48:36;;;;;;;8.13;7.13;;;;;;;6.03;55.38;96932.09;5032863;28;20226;-81
2021/03/01 06:51:03;;;;;;;10.73;7.37;;;;;;;6.16;55.44;96953.25;5032991;28;20249;-82
2021/03/01 06:53:29;;;;;;;18.23;13.47;;;;;;;6.40;54.74;96947.22;5032834;28;20229;-82
2021/03/01 06:55:58;;;;;;;26.40;20.03;;;;;;;6.51;54.19;96950.59;5033697;28;20290;-86
2021/03/01 06:58:27;;;;;;;12.60;9.00;;;;;;;6.40;55.67;96947.22;5033812;28;20206;-84
2021/03/01 07:01:05;;;;;;;12.10;8.80;;;;;;;6.50;56.73;96945.59;5032654;28;20230;-86
2021/03/01 07:03:32;;;;;;;9.97;8.57;;;;;;;6.46;56.58;96950.13;5033716;28;20225;-86
2021/03/01 07:06:00;;;;;;;10.57;8.10;;;;;;;6.33;57.38;96946.06;5032870;28;20289;-85
2021/03/01 07:08:49;;;;;;;9.30;8.40;;;;;;;6.49;57.31;96951.66;5032920;28;20717;-85
2021/03/01 07:11:30;;;;;;;11.77;8.80;;;;;;;6.68;57.21;96953.59;5028592;28;20229;-84
2021/03/01 07:13:59;;;;;;;9.27;8.30;;;;;;;6.89;56.35;96949.38;5033109;28;20229;-86
2021/03/01 07:16:25;;;;;;;11.37;9.73;;;;;;;6.77;56.02;96952.88;5033639;28;20281;-85
2021/03/01 07:18:52;;;;;;;11.00;8.60;;;;;;;6.64;57.03;96944.53;5032629;28;20225;-86
2021/03/01 07:40:36;;;;;;;13.83;8.43;;;;;;;9.07;51.11;96947.47;4903036;28;20253;-85
2021/03/01 07:43:04;;;;;;;13.57;8.67;;;;;;;9.30;49.99;96940.34;5014126;28;20569;-83
2021/03/01 07:45:31;;;;;;;10.87;9.23;;;;;;;9.59;49.64;96943.72;5013202;28;20257;-85
2021/03/01 07:48:00;;;;;;;10.50;9.40;;;;;;;9.51;50.03;96950.47;5012601;28;20230;-84
2021/03/01 07:50:35;;;;;;;11.50;9.27;;;;;;;9.54;49.31;96948.47;5012438;28;20300;-82
2021/03/01 07:53:01;;;;;;;10.20;8.70;;;;;;;9.60;49.22;96941.97;5012956;28;20237;-84
2021/03/01 07:55:27;;;;;;;10.67;8.47;;;;;;;9.71;49.68;96936.66;5013713;28;20219;-84
2021/03/01 07:58:02;;;;;;;11.10;8.63;;;;;;;9.73;48.76;96952.78;5012533;28;20768;-84
2021/03/01 08:00:29;;;;;;;12.93;9.10;;;;;;;9.77;48.65;96945.59;5012776;28;20706;-85
2021/03/01 08:02:56;;;;;;;10.83;8.70;;;;;;;9.66;48.64;96949.94;5013873;28;20235;-84
2021/03/01 08:05:25;;;;;;;10.87;8.40;;;;;;;9.65;49.38;96945.72;5013324;28;20234;-85
2021/03/01 08:07:51;;;;;;;9.57;8.17;;;;;;;9.87;48.61;96944.63;5013266;28;20595;-83
2021/03/01 08:10:19;;;;;;;11.27;8.73;;;;;;;9.95;48.12;96949.09;5012711;28;20262;-84
2021/03/01 08:13:00;;;;;;;24.17;17.77;;;;;;;10.43;47.75;96950.72;5012386;28;20226;-85
2021/03/01 08:15:28;;;;;;;10.33;9.33;;;;;;;10.51;46.45;96950.81;5011467;28;20230;-83
2021/03/01 08:17:55;;;;;;;11.10;8.57;;;;;;;10.89;46.98;96954.97;5011781;28;20230;-84
2021/03/01 08:20:33;;;;;;;9.27;8.27;;;;;;;10.63;46.27;96950.47;5011493;28;20235;-84
2021/03/01 08:23:29;;;;;;;10.83;8.43;;;;;;;10.65;46.59;96947.78;5012344;28;20300;-85
2021/03/01 08:26:05;;;;;;;9.33;8.00;;;;;;;10.43;46.80;96945.56;5012882;28;20596;-84
2021/03/01 08:28:52;;;;;;;13.83;7.83;;;;;;;10.63;46.31;96939.38;5012786;28;20202;-84
2021/03/01 08:31:40;;;;;;;10.37;7.40;;;;;;;11.03;45.92;96944.97;5012553;28;20206;-83
2021/03/01 08:34:25;;;;;;;10.30;7.53;;;;;;;11.15;45.21;96949.94;5012313;28;20664;-85
2021/03/01 08:36:53;;;;;;;8.40;7.50;;;;;;;10.77;45.55;96951.78;5012149;28;20237;-85
2021/03/01 08:39:54;;;;;;;9.83;7.43;;;;;;;10.72;45.46;96959.94;5011818;28;20264;-84
2021/03/01 08:42:46;;;;;;;7.67;6.87;;;;;;;10.51;46.24;96950.81;5012116;28;20233;-83
2021/03/01 08:45:19;;;;;;;7.83;7.07;;;;;;;10.81;46.21;96957.44;5012026;28;20234;-85
2021/03/01 08:47:49;;;;;;;13.67;7.53;;;;;;;11.08;44.73;96953.09;5012511;28;20253;-84
2021/03/01 08:50:20;;;;;;;8.47;6.90;;;;;;;11.56;44.99;96951.09;5011663;28;20300;-82
2021/03/01 08:52:48;;;;;;;7.63;6.83;;;;;;;11.90;43.72;96946.88;5011306;28;20198;-83
2021/03/01 08:55:16;;;;;;;6.90;6.23;;;;;;;12.12;43.15;96945.59;5011647;28;20215;-84
2021/03/01 08:58:03;;;;;;;8.47;6.80;;;;;;;12.22;43.56;96948.03;5010301;28;20223;-84
2021/03/01 09:00:32;;;;;;;7.30;6.60;;;;;;;11.54;44.16;96940.94;5009911;28;20230;-86
2021/03/01 09:03:22;;;;;;;9.07;7.03;;;;;;;11.55;44.51;96946.88;5011817;28;20241;-83
2021/03/01 09:05:50;;;;;;;8.00;6.70;;;;;;;11.31;44.63;96939.78;5011353;28;20249;-83
2021/03/01 09:08:27;;;;;;;8.53;7.00;;;;;;;11.42;44.84;96950.66;5011484;28;20288;-83
2021/03/01 09:10:54;;;;;;;8.67;7.07;;;;;;;11.69;44.75;96954.94;5010699;28;20226;-85
2021/03/01 09:13:22;;;;;;;7.90;7.10;;;;;;;11.45;45.25;96948.75;5012082;28;20206;-86
2021/03/01 09:15:49;;;;;;;8.00;7.20;;;;;;;11.81;44.40;96947.78;5010649;28;20227;-86
2021/03/01 09:18:16;;;;;;;6.97;6.33;;;;;;;12.25;44.02;96952.91;5010560;28;20237;-86
2021/03/01 09:20:46;;;;;;;7.00;6.23;;;;;;;12.47;42.73;96946.41;5010402;28;20238;-86
2021/03/01 09:23:13;;;;;;;7.13;6.13;;;;;;;12.83;42.61;96941.84;5010189;28;20219;-86
2021/03/01 09:25:39;;;;;;;7.87;6.40;;;;;;;12.79;41.55;96944.75;5014085;28;20764;-85
2021/03/01 09:28:07;;;;;;;8.37;6.60;;;;;;;12.24;42.17;96936.59;5014359;28;20203;-86
2021/03/01 09:30:34;;;;;;;7.80;7.00;;;;;;;12.31;43.33;96931.63;5013619;28;20234;-86
2021/03/01 09:33:04;;;;;;;22.90;18.90;;;;;;;12.62;42.41;96932.75;5013381;28;20313;-86
2021/03/01 09:35:32;;;;;;;7.63;6.93;;;;;;;12.51;42.29;96927.84;5013784;28;20227;-86
2021/03/01 09:38:00;;;;;;;7.60;5.87;;;;;;;12.74;42.19;96939.22;5013997;28;20219;-86
2021/03/01 09:40:26;;;;;;;6.10;5.50;;;;;;;12.83;41.62;96926.34;5015885;28;20223;-86
2021/03/01 09:42:54;;;;;;;8.77;6.37;;;;;;;12.87;41.20;96943.16;5015359;28;20282;-86
2021/03/01 09:45:21;;;;;;;10.07;6.97;;;;;;;12.67;41.68;96938.25;5013942;28;20736;-87
2021/03/01 09:47:51;;;;;;;6.47;5.87;;;;;;;12.64;41.63;96930.81;5014476;28;20231;-86
2021/03/01 09:50:19;;;;;;;7.00;6.30;;;;;;;12.07;42.38;96940.88;5014395;28;20309;-86
2021/03/01 09:52:47;;;;;;;8.63;6.07;;;;;;;11.81;43.07;96936.66;5014287;28;20203;-86
2021/03/01 09:55:13;;;;;;;6.20;5.60;;;;;;;11.81;42.76;96929.72;5014832;28;20694;-86
2021/03/01 09:57:40;;;;;;;6.20;5.60;;;;;;;12.18;42.01;96926.88;5014362;28;20230;-86
2021/03/01 10:00:27;;;;;;;6.00;5.40;;;;;;;12.70;41.45;96926.81;5014398;28;20234;-85
2021/03/01 10:03:01;;;;;;;6.43;5.83;;;;;;;12.60;41.01;96926.91;5015062;28;20222;-85
2021/03/01 10:05:30;;;;;;;6.57;5.70;;;;;;;12.28;41.13;96921.63;5014873;28;20238;-85
2021/03/01 10:08:01;;;;;;;5.77;5.20;;;;;;;11.93;41.02;96919.97;5016384;28;20234;-86
2021/03/01 10:10:36;;;;;;;5.77;5.17;;;;;;;11.83;40.64;96917.47;5016861;28;20225;-86
2021/03/01 10:13:03;;;;;;;5.13;4.63;;;;;;;11.51;41.64;96912.06;5015555;28;20218;-86
2021/03/01 10:15:29;;;;;;;6.37;5.13;;;;;;;11.19;41.99;96910.81;5015115;28;20250;-86
2021/03/01 10:18:05;;;;;;;5.90;5.30;;;;;;;11.11;41.61;96915.09;5014856;28;20938;-87
2021/03/01 10:20:33;;;;;;;8.80;7.23;;;;;;;11.34;42.12;96911.13;5013997;28;20245;-86
2021/03/01 10:23:04;;;;;;;7.17;5.73;;;;;;;11.68;41.13;96906.06;5013856;28;20233;-86
2021/03/01 10:25:35;;;;;;;5.50;5.00;;;;;;;11.85;40.43;96901.84;5015228;28;20230;-85
2021/03/01 10:28:01;;;;;;;5.90;5.40;;;;;;;12.26;41.15;96900.28;5014711;28;20262;-86
2021/03/01 10:30:27;;;;;;;6.87;5.10;;;;;;;12.39;39.96;96904.06;5014017;28;20571;-86
2021/03/01 10:33:04;;;;;;;6.63;5.00;;;;;;;12.86;39.64;96905.34;5015095;28;20306;-86
2021/03/01 10:35:30;;;;;;;6.33;4.70;;;;;;;12.91;39.17;96901.31;5013430;28;20238;-86
2021/03/01 10:38:06;;;;;;;5.87;5.23;;;;;;;12.69;38.50;96902.72;5015255;28;20226;-86
2021/03/01 10:40:32;;;;;;;5.93;5.33;;;;;;;12.33;39.59;96896.09;5014251;28;20792;-85
2021/03/01 10:43:13;;;;;;;7.93;5.20;;;;;;;12.40;39.40;96897.13;5014078;28;20214;-85
2021/03/01 10:45:41;;;;;;;7.27;5.50;;;;;;;12.24;38.66;96892.69;5013478;28;20628;-86
2021/03/01 10:48:07;;;;;;;6.03;4.87;;;;;;;11.91;39.04;96885.75;5013215;28;20649;-85
2021/03/01 10:50:33;;;;;;;6.37;5.03;;;;;;;12.37;39.79;96889.69;5013108;28;20235;-86
2021/03/01 10:52:59;;;;;;;5.63;4.87;;;;;;;12.79;38.88;96890.47;5013105;28;20233;-86
2021/03/01 10:55:26;;;;;;;6.80;4.87;;;;;;;12.67;37.37;96883.19;5012827;28;20219;-86
2021/03/01 10:57:52;;;;;;;6.00;5.40;;;;;;;12.34;38.42;96882.22;5014742;28;20265;-85
2021/03/01 11:00:18;;;;;;;5.60;5.10;;;;;;;12.24;38.01;96884.94;5014303;28;20227;-86
2021/03/01 11:02:44;;;;;;;5.90;5.17;;;;;;;12.16;38.44;96884.09;5013750;28;20223;-86
2021/03/01 11:05:11;;;;;;;6.10;5.50;;;;;;;12.36;38.44;96888.06;5013538;28;20226;-86
2021/03/01 11:07:37;;;;;;;15.73;13.83;;;;;;;12.36;37.78;96888.88;5013773;28;20207;-86
2021/03/01 11:10:04;;;;;;;6.23;5.40;;;;;;;12.32;38.23;96877.22;5013237;28;20195;-86
2021/03/01 11:12:30;;;;;;;6.20;5.60;;;;;;;12.29;38.03;96872.38;5013105;28;20223;-86
2021/03/01 11:14:56;;;;;;;5.83;5.23;;;;;;;12.32;38.50;96872.06;5013022;28;20241;-87
2021/03/01 11:17:22;;;;;;;6.43;5.30;;;;;;;12.55;38.25;96872.31;5013476;28;20227;-86
2021/03/01 11:19:48;;;;;;;5.37;4.87;;;;;;;12.66;38.00;96878.97;5012563;28;20233;-86
2021/03/01 11:22:14;;;;;;;5.73;5.13;;;;;;;12.86;37.96;96872.56;5013063;28;20636;-85
2021/03/01 11:24:40;;;;;;;6.00;5.10;;;;;;;12.90;37.19;96870.44;5012200;28;20297;-86
2021/03/01 11:27:06;;;;;;;8.17;5.27;;;;;;;12.79;37.13;96867.22;5011879;28;20273;-87
2021/03/01 11:29:34;;;;;;;8.37;5.87;;;;;;;12.94;38.18;96867.38;5011294;28;20764;-86
2021/03/01 11:32:00;;;;;;;8.40;5.73;;;;;;;13.33;39.44;96864.22;5012105;28;20729;-84
2021/03/01 11:34:25;;;;;;;9.53;6.20;;;;;;;13.71;39.19;96866.13;5012659;28;20213;-87
2021/03/01 11:36:51;;;;;;;7.40;6.70;;;;;;;13.85;38.16;96859.47;5011894;28;20238;-86
2021/03/01 11:39:17;;;;;;;6.43;5.83;;;;;;;14.09;38.33;96856.81;5011377;28;20238;-87
2021/03/01 11:41:43;;;;;;;8.03;6.97;;;;;;;14.15;38.14;96852.75;5011925;28;20222;-87
2021/03/01 11:44:10;;;;;;;6.93;6.33;;;;;;;14.06;37.40;96857.13;5011281;28;20646;-87
2021/03/01 11:46:37;;;;;;;8.20;6.77;;;;;;;14.31;38.42;96859.66;5011402;28;20301;-86
2021/03/01 11:49:03;;;;;;;7.43;6.53;;;;;;;14.06;37.62;96843.38;5012122;28;20717;-86
2021/03/01 11:51:29;;;;;;;19.93;17.87;;;;;;;13.91;37.77;96845.84;5011867;28;20238;-87
2021/03/01 11:53:55;;;;;;;6.97;6.30;;;;;;;13.65;37.85;96840.09;5011709;28;20227;-86
2021/03/01 11:56:21;;;;;;;6.70;5.93;;;;;;;13.84;38.54;96837.16;5012012;28;20234;-86
2021/03/01 11:58:47;;;;;;;6.70;6.00;;;;;;;13.96;38.79;96832.41;5012007;28;20285;-86
2021/03/01 12:01:13;;;;;;;5.90;5.40;;;;;;;14.05;36.90;96837.38;5012380;28;20698;-86
2021/03/01 12:03:40;;;;;;;5.77;5.00;;;;;;;14.20;36.37;96821.16;5013048;28;20234;-86